createdAt,value
2022-08-03T00:02:15.899Z,43.59
2022-08-03T00:04:43.512Z,43.83
2022-08-03T00:07:10.751Z,44.36
2022-08-03T00:09:37.837Z,43.97
2022-08-03T00:12:05.385Z,44.76
2022-08-03T00:14:32.623Z,44.97
2022-08-03T00:16:59.751Z,44.32
2022-08-03T00:19:27.942Z,46.44
2022-08-03T00:21:55.093Z,45.25
2022-08-03T00:24:22.216Z,44.82
2022-08-03T00:26:49.614Z,44.76
2022-08-03T00:29:16.734Z,44.75
2022-08-03T00:31:52.669Z,45.23
2022-08-03T00:34:36.566Z,44.88
2022-08-03T00:37:13.770Z,45.55
2022-08-03T00:39:43.452Z,45.65
2022-08-03T00:42:10.593Z,46.79
2022-08-03T00:44:41.212Z,47.23
2022-08-03T00:47:10.327Z,46.55
2022-08-03T00:49:38.190Z,46.34
2022-08-03T00:52:07.840Z,47.05
2022-08-03T00:54:40.279Z,46.79
2022-08-03T00:57:07.537Z,46.78
2022-08-03T00:59:34.786Z,48.22
2022-08-03T01:02:02.363Z,48.38
2022-08-03T01:04:29.482Z,48.10
2022-08-03T01:07:00.422Z,47.52
2022-08-03T01:09:31.763Z,47.92
2022-08-03T01:12:08.886Z,48.38
2022-08-03T01:14:38.640Z,48.29
2022-08-03T01:17:12.357Z,48.44
2022-08-03T01:19:39.919Z,48.44
2022-08-03T01:22:27.873Z,48.83
2022-08-03T01:25:14.273Z,47.67
2022-08-03T01:27:57.969Z,48.34
2022-08-03T01:30:27.837Z,48.28
2022-08-03T01:33:01.174Z,47.34
2022-08-03T01:35:35.526Z,47.88
2022-08-03T01:38:15.611Z,47.57
2022-08-03T01:40:43.039Z,47.62
2022-08-03T01:43:11.457Z,47.67
2022-08-03T01:45:38.585Z,47.63
2022-08-03T01:48:06.185Z,48.72
2022-08-03T01:50:34.329Z,47.66
2022-08-03T01:53:01.526Z,47.26
2022-08-03T01:55:28.918Z,47.57
2022-08-03T01:58:06.177Z,49.04
2022-08-03T02:00:35.330Z,49.14
2022-08-03T02:03:02.735Z,49.21
2022-08-03T02:05:29.838Z,48.99
2022-08-03T02:07:57.089Z,48.50
2022-08-03T02:10:34.667Z,49.49
2022-08-03T02:13:03.291Z,49.95
2022-08-03T02:15:30.673Z,49.81
2022-08-03T02:17:57.801Z,49.32
2022-08-03T02:20:24.962Z,48.91
2022-08-03T02:22:52.393Z,48.29
2022-08-03T02:25:19.511Z,48.51
2022-08-03T02:27:49.086Z,49.38
2022-08-03T02:30:16.504Z,48.88
2022-08-03T02:32:44.217Z,51.04
2022-08-03T02:35:11.793Z,49.39
2022-08-03T02:37:42.988Z,49.53
2022-08-03T02:40:16.826Z,50.32
2022-08-03T02:42:44.321Z,50.08
2022-08-03T02:45:13.943Z,49.32
2022-08-03T02:47:54.241Z,49.52
2022-08-03T02:50:22.926Z,49.54
2022-08-03T02:52:50.437Z,50.87
2022-08-03T02:55:17.545Z,51.70
2022-08-03T02:57:44.935Z,51.07
2022-08-03T03:00:12.353Z,52.15
2022-08-03T03:02:40.188Z,51.31
2022-08-03T03:05:55.894Z,52.11
2022-08-03T03:07:59.056Z,51.46
2022-08-03T03:10:26.536Z,52.33
2022-08-03T03:12:55.369Z,52.96
2022-08-03T03:15:22.631Z,50.75
2022-08-03T03:17:50.165Z,50.83
2022-08-03T03:20:29.690Z,50.64
2022-08-03T03:23:01.383Z,50.95
2022-08-03T03:25:32.103Z,50.82
2022-08-03T03:27:59.944Z,51.24
2022-08-03T03:30:27.057Z,51.32
2022-08-03T03:32:54.189Z,51.08
2022-08-03T03:35:21.592Z,50.80
2022-08-03T03:37:48.723Z,51.73
2022-08-03T03:40:15.838Z,51.13
2022-08-03T03:42:43.233Z,50.88
2022-08-03T03:45:10.592Z,50.85
2022-08-03T03:47:37.688Z,50.99
2022-08-03T03:50:05.577Z,51.42
2022-08-03T03:52:33.027Z,53.49
2022-08-03T03:55:01.250Z,51.38
2022-08-03T03:57:29.435Z,51.28
2022-08-03T03:59:56.646Z,51.10
2022-08-03T04:02:23.808Z,51.21
2022-08-03T04:05:09.722Z,51.90
2022-08-03T04:07:59.246Z,50.68
2022-08-03T04:10:45.318Z,50.52
2022-08-03T04:13:12.483Z,50.88
2022-08-03T04:15:40.039Z,53.10
2022-08-03T04:18:07.360Z,51.35
2022-08-03T04:20:34.848Z,50.67
2022-08-03T04:23:02.232Z,50.59
2022-08-03T04:25:30.423Z,52.18
2022-08-03T04:28:21.035Z,52.12
2022-08-03T04:30:48.230Z,50.41
2022-08-03T04:33:15.432Z,49.94
2022-08-03T04:35:59.699Z,52.20
2022-08-03T04:38:30.535Z,52.76
2022-08-03T04:40:57.647Z,50.08
2022-08-03T04:43:24.729Z,49.51
2022-08-03T04:45:52.176Z,49.60
2022-08-03T04:48:20.039Z,48.85
2022-08-03T04:50:47.312Z,52.45
2022-08-03T04:53:14.901Z,51.98
2022-08-03T04:55:42.096Z,48.81
2022-08-03T04:58:09.239Z,49.14
2022-08-03T05:00:36.688Z,49.90
2022-08-03T05:03:03.830Z,48.79
2022-08-03T05:05:49.761Z,49.08
2022-08-03T05:08:20.279Z,48.36
2022-08-03T05:10:55.429Z,44.98
2022-08-03T05:13:26.452Z,43.15
2022-08-03T05:15:53.639Z,40.15
2022-08-03T05:18:21.269Z,37.75
2022-08-03T05:20:48.452Z,34.54
2022-08-03T05:23:15.565Z,32.02
2022-08-03T05:25:49.728Z,30.22
2022-08-03T05:28:17.301Z,28.69
2022-08-03T05:30:44.802Z,26.95
2022-08-03T05:33:11.910Z,25.62
2022-08-03T05:36:01.346Z,24.12
2022-08-03T05:38:28.736Z,23.17
2022-08-03T05:41:21.784Z,22.33
2022-08-03T05:43:47.614Z,21.55
2022-08-03T05:46:14.837Z,21.12
2022-08-03T05:48:42.312Z,20.10
2022-08-03T05:51:11.440Z,19.75
2022-08-03T05:53:39.917Z,19.05
2022-08-03T05:56:14.507Z,18.78
2022-08-03T05:58:46.642Z,18.39
2022-08-03T06:01:14.336Z,18.25
2022-08-03T06:03:41.877Z,18.08
2022-08-03T06:06:09.038Z,22.02
2022-08-03T06:08:36.158Z,19.33
2022-08-03T06:11:03.798Z,19.60
2022-08-03T06:13:30.932Z,18.41
2022-08-03T06:15:58.047Z,19.62
2022-08-03T06:18:25.454Z,18.07
2022-08-03T06:20:52.980Z,18.38
2022-08-03T06:23:20.236Z,18.88
2022-08-03T06:25:47.638Z,19.15
2022-08-03T06:31:02.300Z,18.82
2022-08-03T06:34:30.933Z,17.81
2022-08-03T06:36:17.003Z,18.95
2022-08-03T06:38:44.159Z,21.69
2022-08-03T06:41:11.260Z,19.97
2022-08-03T06:44:02.640Z,19.71
2022-08-03T06:46:25.982Z,18.18
2022-08-03T06:48:53.523Z,23.05
2022-08-03T06:51:20.660Z,20.26
2022-08-03T06:54:08.230Z,20.55
2022-08-03T06:56:35.345Z,21.37
2022-08-03T06:59:02.464Z,22.70
2022-08-03T07:01:29.988Z,19.72
2022-08-03T07:03:57.218Z,20.90
2022-08-03T07:06:24.750Z,18.84
2022-08-03T07:08:55.446Z,20.80
2022-08-03T07:11:24.891Z,21.48
2022-08-03T07:13:52.313Z,18.64
2022-08-03T07:16:19.438Z,18.28
2022-08-03T07:18:46.555Z,17.69
2022-08-03T07:21:13.938Z,17.47
2022-08-03T07:23:41.038Z,16.55
2022-08-03T07:26:08.164Z,15.88
2022-08-03T07:28:35.573Z,17.93
2022-08-03T07:31:02.699Z,16.83
2022-08-03T07:33:29.858Z,15.41
2022-08-03T07:35:57.253Z,15.63
2022-08-03T07:38:24.362Z,16.69
2022-08-03T07:40:51.500Z,16.06
